createdAt,value
2022-12-18T00:02:13.980Z,102226.16
2022-12-18T00:04:40.565Z,102229.72
2022-12-18T00:07:07.333Z,102227.00
2022-12-18T00:09:40.158Z,102228.06
2022-12-18T00:14:42.738Z,102239.75
2022-12-18T00:17:09.056Z,102232.00
2022-12-18T00:19:35.578Z,102230.13
2022-12-18T00:22:02.092Z,102243.91
2022-12-18T00:24:28.426Z,102253.94
2022-12-18T00:26:54.756Z,102253.09
2022-12-18T00:29:21.401Z,102253.94
2022-12-18T00:31:47.796Z,102260.41
2022-12-18T00:34:14.773Z,102255.19
2022-12-18T00:36:42.347Z,102254.34
2022-12-18T00:39:09.319Z,102255.19
2022-12-18T00:41:54.114Z,102250.78
2022-12-18T00:44:20.505Z,102239.91
2022-12-18T00:46:48.182Z,102238.03
2022-12-18T00:49:16.550Z,102241.81
2022-12-18T00:51:43.145Z,102247.44
2022-12-18T00:54:11.140Z,102246.41
2022-12-18T00:56:45.791Z,102248.28
2022-12-18T00:59:15.548Z,102257.47
2022-12-18T01:01:42.530Z,102255.16
2022-12-18T01:04:10.380Z,102257.44
2022-12-18T01:06:36.993Z,102247.44
2022-12-18T01:09:04.006Z,102244.91
2022-12-18T01:11:30.677Z,102246.56
2022-12-18T01:13:57.123Z,102258.47
2022-12-18T01:16:24.038Z,102250.34
2022-12-18T01:18:55.404Z,102248.88
2022-12-18T01:21:23.589Z,102237.19
2022-12-18T01:23:54.353Z,102250.56
2022-12-18T01:26:21.368Z,102253.06
2022-12-18T01:28:47.749Z,102257.66
2022-12-18T01:31:19.243Z,102255.16
2022-12-18T01:33:46.538Z,102258.03
2022-12-18T01:36:18.349Z,102246.56
2022-12-18T01:38:45.114Z,102253.03
2022-12-18T01:41:11.608Z,102240.69
2022-12-18T01:43:59.602Z,102233.97
2022-12-18T01:46:28.094Z,102232.13
2022-12-18T01:49:02.496Z,102234.41
2022-12-18T01:51:31.475Z,102238.34
2022-12-18T01:53:58.973Z,102236.06
2022-12-18T01:56:25.520Z,102239.78
2022-12-18T01:58:51.884Z,102232.06
2022-12-18T02:01:18.796Z,102235.84
2022-12-18T02:03:46.098Z,102244.97
2022-12-18T02:06:27.812Z,102242.03
2022-12-18T02:09:09.674Z,102240.38
2022-12-18T02:12:00.507Z,102231.59
2022-12-18T02:15:09.663Z,102227.84
2022-12-18T02:17:42.310Z,102227.03
2022-12-18T02:20:21.045Z,102229.91
2022-12-18T02:23:26.088Z,102223.66
2022-12-18T02:26:15.579Z,102221.97
2022-12-18T02:28:52.348Z,102223.84
2022-12-18T02:31:24.994Z,102224.69
2022-12-18T02:33:55.489Z,102223.84
2022-12-18T02:36:23.701Z,102222.19
2022-12-18T02:38:52.730Z,102222.19
2022-12-18T02:41:19.855Z,102225.94
2022-12-18T02:44:09.537Z,102223.41
2022-12-18T02:46:38.529Z,102224.91
2022-12-18T02:49:36.612Z,102224.06
2022-12-18T02:52:08.915Z,102218.44
2022-12-18T02:55:04.606Z,102218.66
2022-12-18T02:57:54.074Z,102217.59
2022-12-18T03:00:23.987Z,102219.47
2022-12-18T03:03:00.316Z,102219.69
2022-12-18T03:05:45.119Z,102216.31
2022-12-18T03:08:18.382Z,102210.28
2022-12-18T03:11:02.831Z,102200.44
2022-12-18T03:13:32.070Z,102205.84
2022-12-18T03:16:00.849Z,102202.31
2022-12-18T03:18:34.422Z,102212.53
2022-12-18T03:21:06.522Z,102216.28
2022-12-18T03:23:41.523Z,102211.06
2022-12-18T03:26:11.430Z,102213.75
2022-12-18T03:28:43.053Z,102222.13
2022-12-18T03:31:13.918Z,102224.81
2022-12-18T03:34:07.233Z,102222.31
2022-12-18T03:36:33.729Z,102215.84
2022-12-18T03:39:00.356Z,102212.31
2022-12-18T03:41:36.670Z,102210.63
2022-12-18T03:44:14.785Z,102203.97
2022-12-18T03:47:07.988Z,102207.50
2022-12-18T03:49:46.401Z,102198.97
2022-12-18T03:52:21.634Z,102200.03
2022-12-18T03:54:48.542Z,102203.34
2022-12-18T03:57:19.768Z,102209.81
2022-12-18T03:59:50.425Z,102206.28
2022-12-18T04:02:19.009Z,102213.59
2022-12-18T04:04:48.313Z,102215.47
2022-12-18T04:07:15.665Z,102223.59
2022-12-18T04:09:44.236Z,102222.94
2022-12-18T04:12:10.757Z,102227.53
2022-12-18T04:14:37.121Z,102225.66
2022-12-18T04:17:04.677Z,102223.78
2022-12-18T04:19:31.222Z,102219.19
2022-12-18T04:21:57.547Z,102208.34
2022-12-18T04:24:24.054Z,102208.34
2022-12-18T04:26:50.403Z,102210.22
2022-12-18T04:29:17.030Z,102207.72
2022-12-18T04:31:43.320Z,102198.53
2022-12-18T04:34:09.934Z,102201.25
2022-12-18T04:36:36.422Z,102189.56
2022-12-18T04:39:02.744Z,102202.91
2022-12-18T04:41:29.043Z,102201.25
2022-12-18T04:43:55.476Z,102205.84
2022-12-18T04:46:21.950Z,102214.81
2022-12-18T04:48:48.352Z,102210.44
2022-12-18T04:51:14.855Z,102212.31
2022-12-18T04:53:41.723Z,102213.97
2022-12-18T04:56:12.668Z,102211.25
2022-12-18T04:58:41.054Z,102209.38
2022-12-18T05:01:11.277Z,102209.22
2022-12-18T05:03:38.775Z,102212.75
2022-12-18T05:06:07.394Z,102193.75
2022-12-18T05:08:34.589Z,102196.25
2022-12-18T05:11:05.958Z,102187.91
2022-12-18T05:13:33.234Z,102190.44
2022-12-18T05:15:59.901Z,102179.59
2022-12-18T05:18:26.712Z,102187.53
2022-12-18T05:20:54.141Z,102181.06
2022-12-18T05:23:22.757Z,102175.63
2022-12-18T05:26:01.017Z,102170.41
2022-12-18T05:28:29.009Z,102173.97
2022-12-18T05:30:58.244Z,102171.88
2022-12-18T05:33:27.052Z,102174.41
2022-12-18T05:35:58.742Z,102166.88
2022-12-18T05:38:26.977Z,102158.53
2022-12-18T05:40:54.273Z,102161.06
2022-12-18T05:43:23.379Z,102171.50
2022-12-18T05:45:50.480Z,102161.47
2022-12-18T05:48:17.836Z,102169.44
2022-12-18T05:50:48.566Z,102167.53
2022-12-18T05:53:16.843Z,102176.53
2022-12-18T05:55:44.366Z,102188.00
2022-12-18T05:58:12.789Z,102178.19
2022-12-18T06:00:41.576Z,102179.84
2022-12-18T06:03:09.776Z,102182.19
2022-12-18T06:05:41.145Z,102197.22
2022-12-18T06:08:08.473Z,102200.56
2022-12-18T06:10:35.164Z,102203.91
2022-12-18T06:13:02.205Z,102193.69
2022-12-18T06:15:28.851Z,102197.88
2022-12-18T06:17:55.451Z,102198.69
2022-12-18T06:20:22.114Z,102205.59
2022-12-18T06:22:48.633Z,102216.25
2022-12-18T06:25:15.187Z,102218.97
2022-12-18T06:27:41.961Z,102226.94
2022-12-18T06:30:10.120Z,102215.03
2022-12-18T06:32:36.449Z,102216.69
2022-12-18T06:35:02.826Z,102212.75
2022-12-18T06:37:29.437Z,102219.84
2022-12-18T06:39:57.406Z,102216.91
2022-12-18T06:42:24.600Z,102220.47
2022-12-18T06:44:50.960Z,102219.03
2022-12-18T06:47:17.399Z,102219.66
2022-12-18T06:49:44.149Z,102216.75
2022-12-18T06:52:10.480Z,102202.75
2022-12-18T06:54:36.976Z,102210.50
2022-12-18T06:57:03.342Z,102205.69
2022-12-18T06:59:30.088Z,102204.44
2022-12-18T07:01:56.749Z,102215.75
2022-12-18T07:04:23.186Z,102205.50
2022-12-18T07:06:52.123Z,102216.78
2022-12-18T07:09:18.409Z,102203.81
2022-12-18T07:11:44.801Z,102204.25
2022-12-18T07:14:11.289Z,102209.28
2022-12-18T07:16:37.743Z,102204.47
2022-12-18T07:19:04.283Z,102207.84
2022-12-18T07:21:30.832Z,102202.19
2022-12-18T07:23:57.215Z,102198.19
2022-12-18T07:26:24.146Z,102199.69
2022-12-18T07:28:50.848Z,102205.56
2022-12-18T07:31:22.652Z,102199.06
2022-12-18T07:33:51.405Z,102200.31
2022-12-18T07:36:18.182Z,102204.31
2022-12-18T07:38:47.226Z,102200.94
2022-12-18T07:41:15.106Z,102189.66
2022-12-18T07:43:42.606Z,102189.03
2022-12-18T07:46:10.675Z,102196.34
2022-12-18T07:48:38.887Z,102190.28
2022-12-18T07:51:07.219Z,102182.97
2022-12-18T07:53:34.579Z,102183.78
2022-12-18T07:56:26.575Z,102182.94
2022-12-18T07:58:50.397Z,102191.50
2022-12-18T08:01:16.873Z,102189.38
2022-12-18T08:03:43.816Z,102190.00
2022-12-18T08:06:10.741Z,102201.50
2022-12-18T08:08:37.471Z,102191.63
2022-12-18T08:11:04.341Z,102194.34
2022-12-18T08:13:30.743Z,102191.59
2022-12-18T08:16:05.093Z,102193.22
2022-12-18T08:18:33.544Z,102189.44
2022-12-18T08:21:15.948Z,102180.19
2022-12-18T08:23:43.737Z,102178.91
2022-12-18T08:26:12.540Z,102175.06
2022-12-18T08:28:39.292Z,102176.91
2022-12-18T08:31:06.403Z,102171.00
2022-12-18T08:33:33.154Z,102167.19
2022-12-18T08:36:00.788Z,102172.38
2022-12-18T08:38:27.403Z,102163.91
2022-12-18T08:41:05.358Z,102146.47
2022-12-18T08:43:50.366Z,102141.13
2022-12-18T08:46:17.567Z,102137.06
2022-12-18T08:48:44.600Z,102130.03
2022-12-18T08:51:11.389Z,102122.19
2022-12-18T08:53:38.688Z,102109.91
2022-12-18T08:56:05.933Z,102105.81
2022-12-18T08:58:32.512Z,102109.72
2022-12-18T09:01:06.512Z,102114.84
2022-12-18T09:03:33.922Z,102110.50
2022-12-18T09:06:00.455Z,102118.16
2022-12-18T09:08:27.497Z,102125.22
2022-12-18T09:10:54.479Z,102126.00
2022-12-18T09:13:21.126Z,102136.81
2022-12-18T09:15:50.476Z,102141.34
2022-12-18T09:18:18.982Z,102133.09
2022-12-18T09:20:46.332Z,102130.00
2022-12-18T09:23:13.466Z,102119.84
2022-12-18T09:25:40.686Z,102123.09
2022-12-18T09:28:13.704Z,102115.84
2022-12-18T09:30:42.873Z,102114.66
2022-12-18T09:33:09.961Z,102109.13
2022-12-18T09:35:37.962Z,102101.63
2022-12-18T09:38:04.635Z,102111.63
2022-12-18T09:40:37.783Z,102112.59
2022-12-18T09:43:08.221Z,102122.59
2022-12-18T09:45:54.410Z,102124.63
2022-12-18T09:48:27.217Z,102123.41
2022-12-18T09:51:00.746Z,102116.16
2022-12-18T09:53:31.543Z,102111.66
2022-12-18T09:56:01.951Z,102116.19
2022-12-18T09:58:32.924Z,102113.56
2022-12-18T10:00:59.699Z,102109.66
2022-12-18T10:03:26.568Z,102101.56
2022-12-18T10:06:16.333Z,102095.94
2022-12-18T10:09:16.663Z,102095.59
2022-12-18T10:12:24.947Z,102088.41
2022-12-18T10:15:18.818Z,102093.03
2022-12-18T10:18:17.408Z,102083.59
2022-12-18T10:20:52.563Z,102082.72
2022-12-18T10:23:26.938Z,102081.53
2022-12-18T10:26:04.594Z,102064.66
2022-12-18T10:28:33.906Z,102066.53
2022-12-18T10:31:00.443Z,102054.94
2022-12-18T10:33:31.402Z,102055.34
2022-12-18T10:35:58.301Z,102063.19
2022-12-18T10:38:28.895Z,102060.88
2022-12-18T10:40:55.183Z,102048.66
2022-12-18T10:43:25.240Z,102047.41
2022-12-18T10:46:21.712Z,102041.72
2022-12-18T10:48:48.087Z,102038.34
2022-12-18T10:51:43.867Z,102027.47
2022-12-18T10:54:23.489Z,102015.19
2022-12-18T10:56:50.142Z,102010.38
2022-12-18T10:59:18.315Z,102006.88
2022-12-18T11:01:49.452Z,102006.94
2022-12-18T11:04:28.042Z,102002.59
2022-12-18T11:07:06.135Z,102010.06
2022-12-18T11:09:33.472Z,102012.63
2022-12-18T11:12:02.615Z,102014.63
2022-12-18T11:14:35.129Z,102005.56
2022-12-18T11:19:58.956Z,101984.97
2022-12-18T11:22:31.542Z,101977.06
2022-12-18T11:25:32.614Z,101983.38
2022-12-18T11:28:03.534Z,101973.56
2022-12-18T11:30:37.943Z,101977.97
2022-12-18T11:33:19.886Z,101959.56
2022-12-18T11:35:52.627Z,101958.22
2022-12-18T11:38:27.055Z,101959.06
2022-12-18T11:41:07.432Z,101969.78
2022-12-18T11:43:43.139Z,101967.34
2022-12-18T11:46:20.380Z,101967.91
2022-12-18T11:49:28.143Z,101966.81
2022-12-18T11:52:20.577Z,101966.63
2022-12-18T11:54:54.503Z,101954.06
2022-12-18T11:57:28.851Z,101934.28
2022-12-18T12:00:12.056Z,101934.88
2022-12-18T12:03:07.913Z,101928.59
2022-12-18T12:05:40.463Z,101906.91
2022-12-18T12:08:12.605Z,101902.56
2022-12-18T12:10:54.795Z,101900.63
2022-12-18T12:13:34.713Z,101902.88
2022-12-18T12:16:23.317Z,101907.03
2022-12-18T12:19:02.678Z,101913.06
2022-12-18T12:21:50.369Z,101915.31
2022-12-18T12:24:31.736Z,101910.38
2022-12-18T12:27:24.164Z,101897.19
2022-12-18T12:30:10.349Z,101899.69
2022-12-18T12:33:25.947Z,101900.25
2022-12-18T12:36:13.800Z,101887.91
2022-12-18T12:38:51.858Z,101881.31
2022-12-18T12:41:43.054Z,101879.41
2022-12-18T12:44:17.702Z,101876.66
2022-12-18T12:46:46.931Z,101872.81
2022-12-18T12:49:19.799Z,101871.16
2022-12-18T12:51:59.148Z,101865.66
2022-12-18T12:54:27.193Z,101862.63
2022-12-18T12:57:08.506Z,101856.88
2022-12-18T12:59:47.779Z,101851.91
2022-12-18T13:02:30.636Z,101849.72
2022-12-18T13:05:15.693Z,101846.13
2022-12-18T13:07:54.202Z,101845.06
2022-12-18T13:10:32.199Z,101848.63
2022-12-18T13:13:01.800Z,101848.38
2022-12-18T13:15:39.306Z,101847.53
2022-12-18T13:18:09.058Z,101846.75
2022-12-18T13:20:38.281Z,101849.50
2022-12-18T13:23:26.741Z,101834.94
2022-12-18T13:25:58.334Z,101826.13
2022-12-18T13:28:47.758Z,101832.72
2022-12-18T13:31:35.421Z,101830.28
2022-12-18T13:34:26.249Z,101842.94
2022-12-18T13:36:56.041Z,101838.56
2022-12-18T13:39:32.690Z,101837.47
2022-12-18T13:42:07.008Z,101826.47
2022-12-18T13:44:40.691Z,101814.13
2022-12-18T13:47:29.197Z,101821.28
2022-12-18T13:49:55.984Z,101825.16
2022-12-18T13:52:28.786Z,101829.81
2022-12-18T13:54:58.762Z,101824.88
2022-12-18T13:57:36.291Z,101824.06
2022-12-18T14:00:32.712Z,101816.63
2022-12-18T14:03:00.354Z,101838.94
2022-12-18T14:05:32.908Z,101827.94
2022-12-18T14:08:06.819Z,101826.84
2022-12-18T14:10:45.556Z,101826.56
2022-12-18T14:13:22.524Z,101818.31
2022-12-18T14:15:50.265Z,101817.22
2022-12-18T14:18:46.206Z,101817.22
2022-12-18T14:21:26.124Z,101819.13
2022-12-18T14:24:19.609Z,101817.47
2022-12-18T14:26:48.134Z,101813.94
2022-12-18T14:29:24.014Z,101815.84
2022-12-18T14:32:17.829Z,101809.53
2022-12-18T14:34:54.527Z,101792.75
2022-12-18T14:37:26.897Z,101793.84
2022-12-18T14:39:59.174Z,101786.69
2022-12-18T14:42:28.999Z,101778.44
2022-12-18T14:45:40.713Z,101762.22
2022-12-18T14:48:24.412Z,101759.72
2022-12-18T14:51:08.289Z,101763.28
2022-12-18T14:53:42.156Z,101752.03
2022-12-18T14:56:17.335Z,101741.28
2022-12-18T14:58:49.906Z,101746.78
2022-12-18T15:01:32.771Z,101731.38
2022-12-18T15:04:00.988Z,101731.97
2022-12-18T15:06:39.732Z,101725.06
2022-12-18T15:09:25.790Z,101709.38
2022-12-18T15:11:58.220Z,101707.47
2022-12-18T15:14:30.631Z,101705.53
2022-12-18T15:16:58.980Z,101695.34
2022-12-18T15:19:41.503Z,101706.13
2022-12-18T15:22:23.410Z,101712.16
2022-12-18T15:24:51.112Z,101702.56
2022-12-18T15:27:38.887Z,101707.78
2022-12-18T15:30:08.681Z,101686.06
2022-12-18T15:32:37.383Z,101688.25
2022-12-18T15:35:16.388Z,101683.31
2022-12-18T15:37:43.494Z,101686.09
2022-12-18T15:40:17.435Z,101676.19
2022-12-18T15:43:03.434Z,101678.13
2022-12-18T15:45:30.395Z,101681.44
2022-12-18T15:47:57.070Z,101670.47
2022-12-18T15:50:24.192Z,101680.38
2022-12-18T15:52:53.484Z,101677.63
2022-12-18T15:55:43.389Z,101680.41
2022-12-18T15:58:11.244Z,101676.25
2022-12-18T16:00:41.076Z,101662.50
2022-12-18T16:03:07.941Z,101670.75
2022-12-18T16:05:34.499Z,101665.25
2022-12-18T16:08:00.794Z,101668.28
2022-12-18T16:10:27.680Z,101666.06
2022-12-18T16:12:57.002Z,101668.56
2022-12-18T16:15:25.008Z,101672.69
2022-12-18T16:17:52.911Z,101661.66
2022-12-18T16:20:22.489Z,101665.53
2022-12-18T16:22:49.801Z,101658.38
2022-12-18T16:25:26.011Z,101652.28
2022-12-18T16:27:53.271Z,101653.16
2022-12-18T16:30:23.197Z,101649.53
2022-12-18T16:32:49.984Z,101651.47
2022-12-18T16:35:17.279Z,101652.56
2022-12-18T16:37:44.697Z,101649.00
2022-12-18T16:40:16.708Z,101652.88
2022-12-18T16:42:45.282Z,101660.03
2022-12-18T16:45:16.154Z,101658.38
2022-12-18T16:47:42.829Z,101656.72
2022-12-18T16:50:09.915Z,101659.47
2022-12-18T16:52:36.731Z,101658.63
2022-12-18T16:55:04.039Z,101658.63
2022-12-18T16:57:30.602Z,101656.16
2022-12-18T17:00:02.958Z,101665.53
2022-12-18T17:02:31.540Z,101668.00
2022-12-18T17:04:58.759Z,101671.56
2022-12-18T17:07:26.501Z,101656.97
2022-12-18T17:09:53.996Z,101666.88
2022-12-18T17:12:20.809Z,101662.25
2022-12-18T17:14:47.180Z,101665.81
2022-12-18T17:17:23.328Z,101669.66
2022-12-18T17:19:51.303Z,101661.38
2022-12-18T17:22:17.917Z,101652.59
2022-12-18T17:24:44.352Z,101646.78
2022-12-18T17:27:11.066Z,101642.38
2022-12-18T17:29:41.259Z,101641.28
2022-12-18T17:32:13.310Z,101648.72
2022-12-18T17:34:39.926Z,101646.53
2022-12-18T17:37:06.495Z,101646.53
2022-12-18T17:39:34.399Z,101634.66
2022-12-18T17:42:01.199Z,101639.06
2022-12-18T17:44:27.586Z,101626.09
2022-12-18T17:46:54.017Z,101620.03
2022-12-18T17:49:20.678Z,101621.94
2022-12-18T17:51:47.326Z,101622.47
2022-12-18T17:54:13.736Z,101626.31
2022-12-18T17:56:40.392Z,101630.69
2022-12-18T17:59:07.801Z,101617.19
2022-12-18T18:01:38.496Z,101612.75
2022-12-18T18:04:08.999Z,101616.59
2022-12-18T18:06:37.232Z,101636.44
2022-12-18T18:09:15.147Z,101624.03
2022-12-18T18:12:02.432Z,101622.91
2022-12-18T18:14:29.620Z,101623.44
2022-12-18T18:16:56.097Z,101622.06
2022-12-18T18:19:25.145Z,101616.56
2022-12-18T18:21:53.542Z,101624.00
2022-12-18T18:24:23.482Z,101605.81
2022-12-18T18:26:50.236Z,101620.44
2022-12-18T18:29:22.774Z,101618.53
2022-12-18T18:31:51.521Z,101622.09
2022-12-18T18:34:22.589Z,101630.94
2022-12-18T18:36:49.333Z,101625.69
2022-12-18T18:39:16.438Z,101618.28
2022-12-18T18:41:46.833Z,101618.56
2022-12-18T18:44:14.667Z,101620.75
2022-12-18T18:46:41.161Z,101613.06
2022-12-18T18:49:07.711Z,101609.75
2022-12-18T18:51:35.260Z,101614.16
2022-12-18T18:54:02.043Z,101631.00
2022-12-18T18:59:15.667Z,101627.97
2022-12-18T19:01:42.506Z,101640.41
2022-12-18T19:04:13.552Z,101641.22
2022-12-18T19:06:40.289Z,101640.09
2022-12-18T19:09:08.461Z,101639.81
2022-12-18T19:11:53.842Z,101636.22
2022-12-18T19:14:23.231Z,101645.03
2022-12-18T19:16:50.207Z,101646.66
2022-12-18T19:19:21.236Z,101643.59
2022-12-18T19:21:48.102Z,101638.91
2022-12-18T19:24:14.468Z,101638.88
2022-12-18T19:26:41.089Z,101647.97
2022-12-18T19:29:09.489Z,101649.06
2022-12-18T19:31:37.120Z,101649.84
2022-12-18T19:34:07.689Z,101648.41
2022-12-18T19:36:37.050Z,101644.28
2022-12-18T19:39:10.770Z,101661.34
2022-12-18T19:41:37.204Z,101654.47
2022-12-18T19:44:07.658Z,101660.25
2022-12-18T19:46:35.563Z,101655.56
2022-12-18T19:49:02.706Z,101650.84
2022-12-18T19:51:31.597Z,101645.03
2022-12-18T19:54:01.265Z,101634.56
2022-12-18T19:56:31.724Z,101634.28
2022-12-18T19:58:58.168Z,101634.78
2022-12-18T20:01:25.824Z,101631.78
2022-12-18T20:03:54.686Z,101629.84
2022-12-18T20:06:31.240Z,101632.59
2022-12-18T20:09:01.441Z,101631.47
2022-12-18T20:11:32.868Z,101629.53
2022-12-18T20:13:59.342Z,101634.50
2022-12-18T20:16:25.819Z,101635.31
2022-12-18T20:18:54.719Z,101629.81
2022-12-18T20:21:21.430Z,101624.28
2022-12-18T20:23:48.117Z,101626.75
2022-12-18T20:26:14.602Z,101628.69
2022-12-18T20:28:41.238Z,101628.38
2022-12-18T20:31:10.387Z,101627.31
2022-12-18T20:33:41.592Z,101629.75
2022-12-18T20:36:13.504Z,101625.88
2022-12-18T20:38:40.887Z,101621.75
2022-12-18T20:41:12.010Z,101614.28
2022-12-18T20:43:39.894Z,101615.94
2022-12-18T20:46:09.813Z,101621.16
2022-12-18T20:48:36.885Z,101623.66
2022-12-18T20:51:06.848Z,101625.56
2022-12-18T20:53:34.582Z,101633.56
2022-12-18T20:56:02.137Z,101633.28
2022-12-18T20:58:30.035Z,101632.44
2022-12-18T21:01:23.841Z,101637.16
2022-12-18T21:03:52.573Z,101640.16
2022-12-18T21:06:22.003Z,101638.22
2022-12-18T21:08:48.613Z,101637.94
2022-12-18T21:11:53.925Z,101631.88
2022-12-18T21:14:22.993Z,101623.56
2022-12-18T21:16:50.373Z,101633.19
2022-12-18T21:19:20.082Z,101632.38
2022-12-18T21:21:47.303Z,101623.78
2022-12-18T21:24:14.264Z,101620.47
2022-12-18T21:26:45.887Z,101626.50
2022-12-18T21:29:19.846Z,101623.50
2022-12-18T21:31:47.097Z,101628.41
2022-12-18T21:34:19.037Z,101626.50
2022-12-18T21:36:46.334Z,101624.25
2022-12-18T21:39:13.916Z,101636.66
2022-12-18T21:41:59.094Z,101631.97
2022-12-18T21:44:25.590Z,101627.28
2022-12-18T21:46:56.929Z,101628.09
2022-12-18T21:49:25.015Z,101626.16
2022-12-18T21:51:57.339Z,101630.88
2022-12-18T21:54:25.876Z,101615.13
2022-12-18T21:56:53.318Z,101618.69
2022-12-18T21:59:23.148Z,101607.34
2022-12-18T22:01:51.341Z,101604.06
2022-12-18T22:04:18.787Z,101606.00
2022-12-18T22:06:46.793Z,101595.22
2022-12-18T22:09:16.557Z,101592.78
2022-12-18T22:11:43.262Z,101583.16
2022-12-18T22:14:10.401Z,101588.66
2022-12-18T22:16:37.282Z,101590.59
2022-12-18T22:19:04.951Z,101591.69
2022-12-18T22:21:33.920Z,101586.16
2022-12-18T22:24:03.014Z,101588.09
2022-12-18T22:26:35.147Z,101583.72
2022-12-18T22:29:23.384Z,101597.78
2022-12-18T22:31:50.513Z,101583.66
2022-12-18T22:34:22.638Z,101578.13
2022-12-18T22:36:49.969Z,101587.81
2022-12-18T22:39:20.186Z,101567.34
2022-12-18T22:41:46.854Z,101573.38
2022-12-18T22:44:15.049Z,101567.88
2022-12-18T22:46:50.762Z,101570.63
2022-12-18T22:49:32.254Z,101563.72
2022-12-18T22:52:00.132Z,101562.59
2022-12-18T22:54:26.509Z,101562.03
2022-12-18T22:56:52.937Z,101564.78
2022-12-18T22:59:22.978Z,101565.59
2022-12-18T23:01:51.523Z,101560.06
2022-12-18T23:04:28.446Z,101555.38
2022-12-18T23:06:59.755Z,101557.03
2022-12-18T23:09:26.094Z,101558.66
2022-12-18T23:11:52.426Z,101552.88
2022-12-18T23:14:18.969Z,101548.44
2022-12-18T23:16:45.580Z,101550.94
2022-12-18T23:19:13.635Z,101547.84
2022-12-18T23:21:39.924Z,101540.63
2022-12-18T23:24:06.842Z,101535.69
2022-12-18T23:26:33.437Z,101542.03
2022-12-18T23:29:01.836Z,101537.63
2022-12-18T23:31:31.096Z,101531.59
2022-12-18T23:33:58.594Z,101532.41
2022-12-18T23:36:25.618Z,101525.75
2022-12-18T23:38:54.756Z,101512.25
2022-12-18T23:41:23.734Z,101504.78
2022-12-18T23:43:50.642Z,101504.78
2022-12-18T23:46:27.470Z,101502.03
2022-12-18T23:48:58.079Z,101493.72
2022-12-18T23:51:25.764Z,101497.00
2022-12-18T23:53:58.689Z,101499.25
2022-12-18T23:56:27.207Z,101499.78
2022-12-18T23:58:53.816Z,101484.84
